Time;durP1;ratioP1;P1;durP2;ratioP2;P2;SDS_P1;SDS_P2;PMS_P1;PMS_P2;Temp;Humidity;BMP_temperature;BMP_pressure;BME280_temperature;BME280_humidity;BME280_pressure;Samples;Min_cycle;Max_cycle;Signal;HPM_P1;HPM_P2
2024/03/08 00:00:34;;;;;;;;;;;7.50;87.30;;;;;;5001569;28;87050;-43
2024/03/08 00:03:01;;;;;;;;;;;7.50;87.20;;;;;;5004401;28;87784;-43
2024/03/08 00:05:27;;;;;;;;;;;7.50;87.30;;;;;;5006908;28;87549;-43
2024/03/08 00:07:53;;;;;;;;;;;7.50;87.30;;;;;;5013468;28;87039;-43
2024/03/08 00:10:20;;;;;;;;;;;7.50;87.30;;;;;;5009841;28;86608;-43
2024/03/08 00:12:46;;;;;;;;;;;7.50;87.40;;;;;;4998401;28;87650;-43
2024/03/08 00:15:15;;;;;;;;;;;7.50;87.30;;;;;;4999500;28;87504;-43
2024/03/08 00:17:41;;;;;;;;;;;7.50;87.40;;;;;;5008974;28;87903;-43
2024/03/08 00:20:10;;;;;;;;;;;7.40;87.30;;;;;;5004715;28;86963;-43
2024/03/08 00:22:39;;;;;;;;;;;7.50;87.30;;;;;;5019515;28;87776;-43
2024/03/08 00:25:05;;;;;;;;;;;7.50;87.30;;;;;;5005554;28;87598;-43
2024/03/08 00:27:31;;;;;;;;;;;7.40;87.30;;;;;;5004251;28;86956;-42
2024/03/08 00:30:00;;;;;;;;;;;7.40;87.30;;;;;;5001553;28;87042;-43
2024/03/08 00:32:27;;;;;;;;;;;7.40;87.20;;;;;;4999767;28;86940;-44
2024/03/08 00:34:54;;;;;;;;;;;7.40;87.20;;;;;;5013071;28;86244;-43
2024/03/08 00:37:20;;;;;;;;;;;7.40;87.20;;;;;;5012048;28;88806;-43
2024/03/08 00:39:45;;;;;;;;;;;7.40;87.20;;;;;;5004839;28;87079;-43
2024/03/08 00:42:11;;;;;;;;;;;7.40;87.30;;;;;;5002248;28;87811;-43
2024/03/08 00:44:37;;;;;;;;;;;7.40;87.30;;;;;;5005088;28;87466;-43
2024/03/08 00:47:04;;;;;;;;;;;7.40;87.30;;;;;;5006635;28;87056;-43
2024/03/08 00:49:30;;;;;;;;;;;7.40;87.30;;;;;;5011743;28;88357;-43
2024/03/08 00:51:55;;;;;;;;;;;7.40;87.30;;;;;;5012985;28;88449;-43
2024/03/08 00:54:21;;;;;;;;;;;7.40;87.40;;;;;;5016805;28;87321;-44
2024/03/08 00:56:47;;;;;;;;;;;7.40;87.50;;;;;;4995901;28;86913;-43
2024/03/08 00:59:14;;;;;;;;;;;7.30;87.30;;;;;;4999736;28;87602;-43
2024/03/08 01:01:40;;;;;;;;;;;7.40;87.30;;;;;;5006835;28;87181;-43
2024/03/08 01:04:05;;;;;;;;;;;7.40;87.30;;;;;;5010962;28;87460;-43
2024/03/08 01:06:31;;;;;;;;;;;7.40;87.40;;;;;;5014642;28;88000;-43
2024/03/08 01:08:57;;;;;;;;;;;7.30;87.40;;;;;;5019477;28;88649;-43
2024/03/08 01:11:22;;;;;;;;;;;7.30;87.40;;;;;;4991168;28;87594;-43
2024/03/08 01:13:49;;;;;;;;;;;7.40;87.40;;;;;;4999990;28;87103;-43
2024/03/08 01:16:16;;;;;;;;;;;7.40;87.30;;;;;;5009329;28;87306;-43
2024/03/08 01:18:42;;;;;;;;;;;7.40;87.30;;;;;;5008626;28;86971;-43
2024/03/08 01:21:08;;;;;;;;;;;7.30;87.30;;;;;;5013674;28;86998;-44
2024/03/08 01:23:34;;;;;;;;;;;7.30;87.30;;;;;;5012984;28;86593;-43
2024/03/08 01:26:02;;;;;;;;;;;7.30;87.30;;;;;;5002126;28;87797;-43
2024/03/08 01:28:27;;;;;;;;;;;7.30;87.20;;;;;;5000460;28;87807;-43
2024/03/08 01:30:55;;;;;;;;;;;7.30;87.90;;;;;;5004944;28;90484;-43
2024/03/08 01:33:25;;;;;;;;;;;7.30;87.30;;;;;;5009603;28;87008;-43
2024/03/08 01:35:51;;;;;;;;;;;7.30;87.20;;;;;;5017913;28;88315;-44
2024/03/08 01:38:17;;;;;;;;;;;7.30;87.20;;;;;;5025028;28;87768;-43
2024/03/08 01:40:42;;;;;;;;;;;7.30;87.20;;;;;;5004563;28;86986;-43
2024/03/08 01:43:17;;;;;;;;;;;7.30;87.30;;;;;;4999316;28;87412;-43
2024/03/08 01:45:42;;;;;;;;;;;7.30;87.30;;;;;;5007171;28;87074;-43
2024/03/08 01:48:08;;;;;;;;;;;7.20;87.30;;;;;;5010180;28;86649;-43
2024/03/08 01:50:33;;;;;;;;;;;7.30;87.30;;;;;;5018468;28;87661;-43
2024/03/08 01:53:00;;;;;;;;;;;7.30;87.30;;;;;;5022564;28;87125;-43
2024/03/08 01:55:25;;;;;;;;;;;7.20;87.30;;;;;;5007629;28;87887;-43
2024/03/08 01:57:51;;;;;;;;;;;7.20;87.40;;;;;;5005335;28;87509;-44
2024/03/08 02:00:18;;;;;;;;;;;7.20;87.40;;;;;;5007788;28;87540;-43
2024/03/08 02:02:46;;;;;;;;;;;7.20;87.30;;;;;;5003455;28;87715;-43
2024/03/08 02:05:13;;;;;;;;;;;7.20;87.40;;;;;;5011855;28;87055;-43
2024/03/08 02:07:43;;;;;;;;;;;7.20;87.40;;;;;;5018191;28;87871;-43
2024/03/08 02:10:09;;;;;;;;;;;7.20;87.40;;;;;;5012918;28;87292;-43
2024/03/08 02:12:35;;;;;;;;;;;7.20;87.40;;;;;;5001354;28;86322;-43
2024/03/08 02:15:01;;;;;;;;;;;7.20;87.40;;;;;;5010301;28;86912;-43
2024/03/08 02:17:26;;;;;;;;;;;7.20;87.30;;;;;;5006603;28;87438;-43
2024/03/08 02:19:52;;;;;;;;;;;7.20;87.40;;;;;;5011895;28;88047;-43
2024/03/08 02:22:17;;;;;;;;;;;7.20;87.40;;;;;;5020571;28;87921;-42
2024/03/08 02:24:43;;;;;;;;;;;7.20;87.50;;;;;;5015492;28;86941;-43
2024/03/08 02:27:11;;;;;;;;;;;7.20;87.40;;;;;;4998849;28;87029;-43
2024/03/08 02:29:37;;;;;;;;;;;7.20;87.50;;;;;;5001209;28;88614;-44
2024/03/08 02:32:03;;;;;;;;;;;7.10;87.50;;;;;;5008045;28;87274;-42
2024/03/08 02:34:31;;;;;;;;;;;7.20;87.40;;;;;;5017747;28;87938;-43
2024/03/08 02:36:56;;;;;;;;;;;7.20;87.40;;;;;;5017946;28;87718;-44
2024/03/08 02:39:22;;;;;;;;;;;7.10;87.40;;;;;;5021499;28;87228;-43
2024/03/08 02:41:48;;;;;;;;;;;7.20;87.60;;;;;;4998975;28;86936;-44
2024/03/08 02:44:14;;;;;;;;;;;7.10;87.50;;;;;;5002408;28;87869;-43
2024/03/08 02:46:40;;;;;;;;;;;7.20;87.40;;;;;;5003993;28;88865;-43
2024/03/08 02:49:07;;;;;;;;;;;7.20;87.30;;;;;;5009786;28;87414;-43
2024/03/08 02:51:35;;;;;;;;;;;7.10;87.30;;;;;;5012526;28;87058;-43
2024/03/08 02:54:00;;;;;;;;;;;7.20;87.40;;;;;;5017002;28;87484;-43
2024/03/08 02:56:26;;;;;;;;;;;7.10;87.20;;;;;;5003021;28;88717;-43
2024/03/08 02:58:52;;;;;;;;;;;7.10;87.30;;;;;;5004024;28;87024;-43
2024/03/08 03:01:20;;;;;;;;;;;7.10;87.20;;;;;;5003635;28;86702;-43
2024/03/08 03:03:47;;;;;;;;;;;7.10;87.30;;;;;;5014092;28;88501;-43
2024/03/08 03:06:12;;;;;;;;;;;7.10;87.40;;;;;;5018062;28;87032;-43
2024/03/08 03:08:38;;;;;;;;;;;7.10;87.50;;;;;;5022729;28;88381;-43
2024/03/08 03:11:04;;;;;;;;;;;7.10;87.50;;;;;;5000661;28;87821;-43
2024/03/08 03:13:29;;;;;;;;;;;7.10;87.40;;;;;;5002178;28;87778;-43
2024/03/08 03:15:57;;;;;;;;;;;7.10;87.30;;;;;;5006319;28;87549;-43
2024/03/08 03:18:23;;;;;;;;;;;7.10;87.50;;;;;;5005615;28;86931;-43
2024/03/08 03:20:49;;;;;;;;;;;7.00;87.40;;;;;;5018335;28;86983;-43
2024/03/08 03:23:20;;;;;;;;;;;7.00;87.50;;;;;;5019197;28;88026;-43
2024/03/08 03:25:46;;;;;;;;;;;7.10;87.40;;;;;;5003147;28;86321;-43
2024/03/08 03:28:14;;;;;;;;;;;7.00;87.40;;;;;;5002001;28;87335;-42
2024/03/08 03:30:40;;;;;;;;;;;7.10;87.40;;;;;;5006102;28;86996;-43
2024/03/08 03:33:08;;;;;;;;;;;7.00;87.30;;;;;;5009541;28;87889;-44
2024/03/08 03:35:34;;;;;;;;;;;7.00;87.30;;;;;;5017330;28;87444;-43
2024/03/08 03:38:17;;;;;;;;;;;7.10;87.30;;;;;;5019777;28;87194;-43
2024/03/08 03:40:45;;;;;;;;;;;7.00;87.40;;;;;;5001554;28;86973;-43
2024/03/08 03:43:10;;;;;;;;;;;7.00;87.40;;;;;;4999094;28;88631;-43
2024/03/08 03:45:36;;;;;;;;;;;7.00;87.40;;;;;;5004047;28;87732;-43
2024/03/08 03:48:12;;;;;;;;;;;7.00;87.40;;;;;;5014006;28;87835;-42
2024/03/08 03:50:38;;;;;;;;;;;7.00;87.40;;;;;;5010271;28;86293;-43
2024/03/08 03:53:06;;;;;;;;;;;7.00;87.80;;;;;;5018312;28;86993;-43
2024/03/08 03:55:32;;;;;;;;;;;7.00;87.30;;;;;;4998737;28;87695;-43
2024/03/08 03:58:00;;;;;;;;;;;7.00;87.20;;;;;;5003229;28;87988;-42
2024/03/08 04:00:26;;;;;;;;;;;7.00;87.30;;;;;;5003396;28;87834;-43
2024/03/08 04:02:52;;;;;;;;;;;7.00;87.20;;;;;;5009397;28;86851;-42
2024/03/08 04:05:18;;;;;;;;;;;6.90;87.10;;;;;;5012916;28;86922;-42
2024/03/08 04:07:44;;;;;;;;;;;6.90;87.00;;;;;;5020590;28;86851;-43
2024/03/08 04:10:11;;;;;;;;;;;7.00;87.00;;;;;;5013039;28;88557;-43
2024/03/08 04:12:37;;;;;;;;;;;6.90;87.00;;;;;;4996104;28;88044;-43
2024/03/08 04:15:02;;;;;;;;;;;6.90;87.00;;;;;;5004011;28;86582;-43
2024/03/08 04:17:28;;;;;;;;;;;6.90;87.00;;;;;;5014053;28;87059;-42
2024/03/08 04:19:54;;;;;;;;;;;6.90;87.00;;;;;;5011163;28;87551;-43
2024/03/08 04:22:19;;;;;;;;;;;6.90;87.00;;;;;;5017249;28;89807;-43
2024/03/08 04:24:45;;;;;;;;;;;6.90;87.00;;;;;;5013270;28;87078;-43
2024/03/08 04:27:11;;;;;;;;;;;6.90;87.10;;;;;;4997025;28;87044;-43
2024/03/08 04:29:37;;;;;;;;;;;6.90;87.20;;;;;;5004431;28;87383;-43
2024/03/08 04:32:03;;;;;;;;;;;6.90;87.10;;;;;;5006607;28;87117;-43
2024/03/08 04:34:29;;;;;;;;;;;6.90;87.20;;;;;;5011353;28;87106;-42
2024/03/08 04:36:57;;;;;;;;;;;6.90;87.20;;;;;;5020379;28;87007;-42
2024/03/08 04:39:22;;;;;;;;;;;6.90;87.30;;;;;;5007608;28;86613;-43
2024/03/08 04:41:49;;;;;;;;;;;6.90;87.10;;;;;;4998746;28;88731;-43
2024/03/08 04:44:14;;;;;;;;;;;6.90;87.10;;;;;;5006232;28;87415;-43
2024/03/08 04:46:40;;;;;;;;;;;6.90;87.20;;;;;;5003352;28;87799;-43
2024/03/08 04:49:07;;;;;;;;;;;6.90;87.20;;;;;;5004801;28;88442;-42
2024/03/08 04:51:33;;;;;;;;;;;6.80;87.20;;;;;;5009156;28;87050;-43
2024/03/08 04:53:59;;;;;;;;;;;6.90;87.10;;;;;;5012831;28;88032;-43
2024/03/08 04:56:25;;;;;;;;;;;6.80;87.10;;;;;;4998131;28;87100;-43
2024/03/08 04:58:51;;;;;;;;;;;6.80;87.20;;;;;;5003472;28;86994;-43
2024/03/08 05:01:17;;;;;;;;;;;6.80;87.00;;;;;;5000409;28;90113;-43
2024/03/08 05:03:42;;;;;;;;;;;6.80;86.90;;;;;;5009809;28;86342;-42
2024/03/08 05:06:08;;;;;;;;;;;6.90;87.00;;;;;;5015443;28;86582;-42
2024/03/08 05:08:34;;;;;;;;;;;6.80;87.00;;;;;;5003722;28;88505;-42
2024/03/08 05:11:03;;;;;;;;;;;6.80;87.00;;;;;;4996319;28;87998;-43
2024/03/08 05:13:30;;;;;;;;;;;6.80;87.00;;;;;;5008931;28;88800;-42
2024/03/08 05:15:58;;;;;;;;;;;6.80;86.90;;;;;;4999982;28;87129;-43
2024/03/08 05:18:24;;;;;;;;;;;6.80;87.20;;;;;;5001206;28;87922;-42
2024/03/08 05:20:50;;;;;;;;;;;6.80;87.10;;;;;;5003708;28;87296;-42
2024/03/08 05:23:16;;;;;;;;;;;6.80;87.10;;;;;;5016917;28;86962;-42
2024/03/08 05:25:41;;;;;;;;;;;6.80;87.30;;;;;;4995282;28;86866;-42
2024/03/08 05:28:08;;;;;;;;;;;6.80;87.00;;;;;;4997935;28;86275;-43
2024/03/08 05:30:35;;;;;;;;;;;6.80;87.00;;;;;;5002985;28;87328;-42
2024/03/08 05:33:01;;;;;;;;;;;6.80;87.00;;;;;;5003719;28;87053;-42
2024/03/08 05:35:27;;;;;;;;;;;6.80;87.10;;;;;;5008063;28;88351;-43
2024/03/08 05:37:52;;;;;;;;;;;6.80;87.20;;;;;;5006262;28;87678;-43
2024/03/08 05:40:19;;;;;;;;;;;6.80;87.00;;;;;;4999057;28;87707;-42
2024/03/08 05:42:44;;;;;;;;;;;6.80;87.10;;;;;;4998409;28;87364;-42
2024/03/08 05:45:10;;;;;;;;;;;6.80;87.20;;;;;;5003559;28;87123;-42
2024/03/08 05:47:36;;;;;;;;;;;6.80;87.70;;;;;;5001561;28;88591;-42
2024/03/08 05:50:02;;;;;;;;;;;6.70;87.10;;;;;;5000397;28;87064;-43
2024/03/08 05:52:27;;;;;;;;;;;6.70;87.00;;;;;;5016928;28;86927;-42
2024/03/08 05:54:53;;;;;;;;;;;6.80;87.00;;;;;;5004911;28;88407;-42
2024/03/08 05:57:19;;;;;;;;;;;6.70;87.00;;;;;;4998461;28;87049;-42
2024/03/08 05:59:44;;;;;;;;;;;6.70;86.90;;;;;;4998925;28;89899;-42
2024/03/08 06:02:10;;;;;;;;;;;6.70;86.80;;;;;;5004022;28;87054;-43
2024/03/08 06:04:35;;;;;;;;;;;6.70;86.80;;;;;;5008295;28;87239;-42
2024/03/08 06:07:03;;;;;;;;;;;6.70;86.80;;;;;;5007731;28;88026;-43
2024/03/08 06:09:28;;;;;;;;;;;6.70;86.70;;;;;;5001261;28;86911;-42
2024/03/08 06:11:54;;;;;;;;;;;6.70;86.60;;;;;;4994589;28;87557;-42
2024/03/08 06:14:20;;;;;;;;;;;6.70;86.70;;;;;;4995520;28;87169;-42
2024/03/08 06:16:46;;;;;;;;;;;6.70;86.60;;;;;;5003111;28;86850;-43
2024/03/08 06:19:12;;;;;;;;;;;6.70;86.70;;;;;;5016644;28;87506;-42
2024/03/08 06:21:38;;;;;;;;;;;6.70;86.70;;;;;;5015921;28;87017;-42
2024/03/08 06:24:04;;;;;;;;;;;6.70;86.70;;;;;;5012183;28;87965;-43
2024/03/08 06:26:29;;;;;;;;;;;6.70;86.60;;;;;;5001102;28;87499;-42
2024/03/08 06:28:55;;;;;;;;;;;6.70;86.60;;;;;;5004734;28;86998;-42
2024/03/08 06:31:21;;;;;;;;;;;6.70;86.60;;;;;;5007832;28;87831;-44
2024/03/08 06:33:46;;;;;;;;;;;6.70;86.60;;;;;;5003341;28;88533;-43
2024/03/08 06:36:13;;;;;;;;;;;6.70;86.50;;;;;;4999880;28;87380;-43
2024/03/08 06:38:42;;;;;;;;;;;6.70;86.60;;;;;;5015357;28;87026;-43
2024/03/08 06:41:09;;;;;;;;;;;6.70;86.50;;;;;;4998402;28;87684;-42
2024/03/08 06:43:34;;;;;;;;;;;6.60;86.50;;;;;;5000231;28;87590;-42
2024/03/08 06:46:00;;;;;;;;;;;6.70;86.50;;;;;;5006267;28;87717;-43
2024/03/08 06:48:25;;;;;;;;;;;6.60;86.60;;;;;;5012324;28;88098;-42
2024/03/08 06:50:51;;;;;;;;;;;6.60;86.40;;;;;;5008750;28;86962;-43
2024/03/08 06:53:18;;;;;;;;;;;6.60;86.50;;;;;;5005412;28;87462;-42
2024/03/08 06:55:44;;;;;;;;;;;6.70;86.50;;;;;;4997407;28;87795;-42
2024/03/08 06:58:10;;;;;;;;;;;6.60;86.40;;;;;;4993532;28;87659;-42
2024/03/08 07:00:36;;;;;;;;;;;6.60;86.40;;;;;;5007324;28;87048;-42
2024/03/08 07:03:02;;;;;;;;;;;6.60;86.50;;;;;;5004832;28;87883;-43
2024/03/08 07:05:32;;;;;;;;;;;6.60;86.40;;;;;;5008844;28;86743;-42
2024/03/08 07:07:58;;;;;;;;;;;6.60;86.40;;;;;;5018286;28;87024;-42
2024/03/08 07:10:24;;;;;;;;;;;6.60;86.40;;;;;;5001756;28;87779;-42
2024/03/08 07:12:55;;;;;;;;;;;6.60;86.40;;;;;;5001924;28;89302;-42
2024/03/08 07:15:23;;;;;;;;;;;6.60;86.40;;;;;;4997964;28;88144;-42
2024/03/08 07:17:48;;;;;;;;;;;6.60;86.40;;;;;;5008073;28;87134;-42
2024/03/08 07:20:17;;;;;;;;;;;6.60;86.50;;;;;;5015123;28;87443;-42
2024/03/08 07:22:47;;;;;;;;;;;6.60;87.00;;;;;;5004393;28;87363;-42
2024/03/08 07:25:21;;;;;;;;;;;6.60;86.40;;;;;;4994361;28;88968;-42
2024/03/08 07:27:53;;;;;;;;;;;6.60;86.30;;;;;;5000999;28;86937;-42
2024/03/08 07:33:04;;;;;;;;;;;6.60;86.30;;;;;;5001895;28;87213;-42
2024/03/08 07:35:31;;;;;;;;;;;6.60;86.30;;;;;;5006482;28;87033;-43
2024/03/08 07:37:57;;;;;;;;;;;6.60;86.40;;;;;;5018513;28;87971;-43
2024/03/08 07:40:23;;;;;;;;;;;6.50;86.30;;;;;;4996467;28;88783;-42
2024/03/08 07:42:49;;;;;;;;;;;6.60;86.40;;;;;;4997217;28;87440;-42
2024/03/08 07:45:15;;;;;;;;;;;6.60;86.50;;;;;;5001029;28;87894;-43
2024/03/08 07:47:41;;;;;;;;;;;6.60;86.40;;;;;;5011639;28;86991;-43
2024/03/08 07:50:10;;;;;;;;;;;6.60;86.30;;;;;;5004283;28;87829;-42
2024/03/08 07:52:36;;;;;;;;;;;6.60;86.40;;;;;;5005374;28;88468;-42
2024/03/08 07:55:03;;;;;;;;;;;6.60;86.40;;;;;;5002644;28;86240;-42
2024/03/08 07:57:29;;;;;;;;;;;6.60;86.30;;;;;;4999498;28;87257;-42
2024/03/08 07:59:55;;;;;;;;;;;6.60;86.40;;;;;;4994670;28;89139;-42
2024/03/08 08:02:21;;;;;;;;;;;6.60;86.30;;;;;;5005455;28;88698;-42
2024/03/08 08:04:46;;;;;;;;;;;6.60;86.40;;;;;;5013438;28;88365;-44
2024/03/08 08:07:12;;;;;;;;;;;6.60;86.40;;;;;;5021794;28;87391;-44
2024/03/08 08:09:37;;;;;;;;;;;6.60;86.40;;;;;;4999158;28;88102;-43
2024/03/08 08:12:03;;;;;;;;;;;6.50;86.40;;;;;;4997815;28;86989;-42
2024/03/08 08:14:29;;;;;;;;;;;6.50;86.30;;;;;;5004069;28;86897;-42
2024/03/08 08:16:57;;;;;;;;;;;6.60;86.30;;;;;;5005082;28;87640;-42
2024/03/08 08:19:22;;;;;;;;;;;6.50;86.20;;;;;;5004021;28;88039;-42
2024/03/08 08:24:32;;;;;;;;;;;6.60;86.30;;;;;;5001805;28;87090;-42
2024/03/08 08:26:57;;;;;;;;;;;6.60;86.30;;;;;;4995954;28;88315;-43
2024/03/08 08:29:23;;;;;;;;;;;6.60;86.30;;;;;;5000607;28;87105;-42
2024/03/08 08:31:49;;;;;;;;;;;6.60;86.30;;;;;;4998917;28;87717;-43
2024/03/08 08:34:16;;;;;;;;;;;6.60;86.40;;;;;;5014731;28;86907;-42
2024/03/08 08:36:42;;;;;;;;;;;6.60;86.30;;;;;;5011458;28;87838;-43
2024/03/08 08:39:13;;;;;;;;;;;6.60;86.20;;;;;;4997737;28;87096;-43
2024/03/08 08:41:41;;;;;;;;;;;6.60;86.20;;;;;;4994967;28;87340;-43
2024/03/08 08:44:09;;;;;;;;;;;6.60;86.20;;;;;;5000659;28;87955;-42
2024/03/08 08:46:38;;;;;;;;;;;6.60;86.40;;;;;;5003639;28;87449;-42
2024/03/08 08:49:05;;;;;;;;;;;6.60;86.30;;;;;;5001004;28;87088;-43
2024/03/08 08:51:33;;;;;;;;;;;6.60;86.30;;;;;;5006409;28;88318;-42
2024/03/08 08:53:59;;;;;;;;;;;6.60;86.30;;;;;;5015546;28;87036;-42
2024/03/08 08:56:25;;;;;;;;;;;6.60;86.00;;;;;;4996648;28;87057;-43
2024/03/08 08:58:53;;;;;;;;;;;6.60;86.30;;;;;;4997756;28;88165;-42
2024/03/08 09:01:19;;;;;;;;;;;6.60;86.10;;;;;;4998556;28;87071;-43
2024/03/08 09:03:46;;;;;;;;;;;6.60;86.10;;;;;;5005991;28;87180;-42
2024/03/08 09:06:13;;;;;;;;;;;6.60;86.20;;;;;;5007840;28;87372;-42
2024/03/08 09:08:38;;;;;;;;;;;6.60;86.20;;;;;;5001271;28;86623;-43
2024/03/08 09:11:05;;;;;;;;;;;6.60;86.40;;;;;;4997130;28;87112;-42
2024/03/08 09:13:30;;;;;;;;;;;6.60;86.50;;;;;;5004414;28;88431;-43
2024/03/08 09:15:56;;;;;;;;;;;6.60;86.30;;;;;;5002909;28;87898;-42
2024/03/08 09:18:22;;;;;;;;;;;6.60;86.20;;;;;;4998894;28;87389;-42
2024/03/08 09:20:47;;;;;;;;;;;6.60;86.40;;;;;;5003951;28;87687;-43
2024/03/08 09:23:13;;;;;;;;;;;6.60;86.30;;;;;;5015064;28;87093;-42
2024/03/08 09:25:38;;;;;;;;;;;6.60;86.30;;;;;;4993767;28;87510;-42
2024/03/08 09:28:05;;;;;;;;;;;6.60;86.20;;;;;;4998295;28;87492;-42
2024/03/08 09:30:31;;;;;;;;;;;6.60;86.20;;;;;;4997796;28;88993;-42
2024/03/08 09:32:56;;;;;;;;;;;6.60;86.30;;;;;;5009584;28;86952;-43
2024/03/08 09:35:22;;;;;;;;;;;6.60;86.10;;;;;;5009176;28;87139;-43
2024/03/08 09:37:51;;;;;;;;;;;6.60;86.80;;;;;;4999691;28;87241;-42
2024/03/08 09:40:19;;;;;;;;;;;6.60;86.30;;;;;;4991268;28;88061;-43
2024/03/08 09:42:48;;;;;;;;;;;6.60;86.40;;;;;;4997911;28;88873;-42
2024/03/08 09:45:16;;;;;;;;;;;6.60;86.30;;;;;;4990349;28;88422;-42
2024/03/08 09:47:42;;;;;;;;;;;6.60;86.50;;;;;;4993554;28;87011;-43
2024/03/08 09:50:09;;;;;;;;;;;6.70;86.20;;;;;;4998929;28;87759;-43
2024/03/08 09:52:39;;;;;;;;;;;6.60;86.40;;;;;;5019094;28;88744;-43
2024/03/08 09:55:06;;;;;;;;;;;6.60;86.40;;;;;;5005185;28;87812;-42
2024/03/08 09:57:36;;;;;;;;;;;6.60;86.40;;;;;;4999414;28;87931;-42
2024/03/08 10:00:06;;;;;;;;;;;6.60;86.40;;;;;;5007579;28;87208;-42
2024/03/08 10:02:34;;;;;;;;;;;6.60;86.40;;;;;;5013097;28;87945;-43
2024/03/08 10:05:03;;;;;;;;;;;6.60;86.30;;;;;;5000626;28;88351;-42
2024/03/08 10:07:28;;;;;;;;;;;6.70;86.30;;;;;;5001863;28;87807;-43
2024/03/08 10:09:54;;;;;;;;;;;6.70;86.30;;;;;;5009113;28;88526;-42
2024/03/08 10:12:20;;;;;;;;;;;6.70;86.10;;;;;;5002503;28;87415;-43
2024/03/08 10:14:46;;;;;;;;;;;6.70;86.20;;;;;;5003940;28;87505;-42
2024/03/08 10:17:12;;;;;;;;;;;6.70;86.00;;;;;;5005022;28;88048;-42
2024/03/08 10:19:38;;;;;;;;;;;6.70;86.10;;;;;;5004045;28;87541;-43
2024/03/08 10:22:05;;;;;;;;;;;6.70;86.20;;;;;;5007010;28;87927;-42
2024/03/08 10:24:30;;;;;;;;;;;6.70;86.20;;;;;;5012511;28;87423;-42
2024/03/08 10:27:00;;;;;;;;;;;6.70;86.30;;;;;;4996345;28;87314;-44
2024/03/08 10:29:26;;;;;;;;;;;6.70;86.40;;;;;;4996022;28;88203;-42
2024/03/08 10:31:51;;;;;;;;;;;6.70;86.40;;;;;;5003646;28;87836;-42
2024/03/08 10:34:17;;;;;;;;;;;6.70;86.30;;;;;;5007319;28;87088;-43
2024/03/08 10:36:43;;;;;;;;;;;6.70;86.40;;;;;;5002142;28;87906;-42
2024/03/08 10:39:22;;;;;;;;;;;6.70;86.30;;;;;;5008857;28;88670;-42
2024/03/08 10:41:59;;;;;;;;;;;6.70;86.40;;;;;;5000028;28;87424;-42
2024/03/08 10:44:27;;;;;;;;;;;6.70;86.50;;;;;;4998004;28;88395;-42
2024/03/08 10:46:54;;;;;;;;;;;6.70;86.50;;;;;;5000575;28;86494;-42
2024/03/08 10:49:24;;;;;;;;;;;6.70;86.50;;;;;;4999627;28;87103;-42
2024/03/08 10:51:51;;;;;;;;;;;6.70;86.40;;;;;;5011686;28;86983;-42
2024/03/08 10:54:18;;;;;;;;;;;6.70;86.60;;;;;;5015217;28;88008;-43
2024/03/08 10:56:44;;;;;;;;;;;6.60;86.70;;;;;;4995569;28;88799;-43
2024/03/08 10:59:10;;;;;;;;;;;6.60;86.90;;;;;;4993427;28;88400;-42
2024/03/08 11:01:36;;;;;;;;;;;6.60;87.00;;;;;;5004855;28;87050;-42
2024/03/08 11:04:04;;;;;;;;;;;6.60;87.00;;;;;;5001056;28;87672;-42
2024/03/08 11:06:41;;;;;;;;;;;6.60;87.10;;;;;;5001200;28;87148;-43
2024/03/08 11:09:25;;;;;;;;;;;6.60;87.00;;;;;;5006514;28;87175;-42
2024/03/08 11:11:50;;;;;;;;;;;6.60;86.90;;;;;;4994604;28;86819;-42
2024/03/08 11:14:42;;;;;;;;;;;6.70;87.00;;;;;;4997166;28;87155;-42
2024/03/08 11:17:08;;;;;;;;;;;6.70;87.00;;;;;;5001291;28;88092;-42
2024/03/08 11:19:33;;;;;;;;;;;6.60;87.00;;;;;;5006778;28;89547;-43
2024/03/08 11:22:19;;;;;;;;;;;6.70;87.10;;;;;;5010621;28;87824;-43
2024/03/08 11:24:45;;;;;;;;;;;6.70;87.20;;;;;;5005476;28;87212;-42
2024/03/08 11:27:11;;;;;;;;;;;6.70;87.20;;;;;;4997752;28;86998;-42
2024/03/08 11:29:39;;;;;;;;;;;6.60;87.10;;;;;;5001146;28;86913;-42
2024/03/08 11:32:05;;;;;;;;;;;6.70;87.30;;;;;;5002082;28;88526;-42
2024/03/08 11:34:33;;;;;;;;;;;6.70;87.30;;;;;;5002638;28;87471;-43
2024/03/08 11:36:59;;;;;;;;;;;6.70;87.20;;;;;;5001442;28;87936;-42
2024/03/08 11:39:25;;;;;;;;;;;6.70;87.30;;;;;;5003210;28;87978;-43
2024/03/08 11:41:51;;;;;;;;;;;6.70;87.30;;;;;;4990854;28;87010;-42
2024/03/08 11:44:17;;;;;;;;;;;6.60;87.30;;;;;;4997320;28;88045;-43
2024/03/08 11:46:47;;;;;;;;;;;6.70;87.30;;;;;;4993574;28;87289;-42
2024/03/08 11:49:15;;;;;;;;;;;6.70;87.50;;;;;;5000728;28;87960;-42
2024/03/08 11:51:41;;;;;;;;;;;6.70;87.50;;;;;;5010971;28;87579;-42
2024/03/08 11:54:11;;;;;;;;;;;6.70;87.60;;;;;;5005612;28;87025;-42
2024/03/08 11:56:37;;;;;;;;;;;6.60;87.60;;;;;;4996432;28;87907;-43
2024/03/08 11:59:03;;;;;;;;;;;6.60;87.70;;;;;;4992756;28;87428;-42
2024/03/08 12:01:28;;;;;;;;;;;6.60;87.90;;;;;;4994541;28;86376;-42
2024/03/08 12:03:55;;;;;;;;;;;6.70;87.80;;;;;;4997571;28;87745;-42
2024/03/08 12:06:21;;;;;;;;;;;6.70;87.90;;;;;;5005709;28;88528;-42
2024/03/08 12:08:50;;;;;;;;;;;6.70;87.90;;;;;;5009264;28;87734;-43
2024/03/08 12:11:22;;;;;;;;;;;6.70;87.80;;;;;;4993076;28;88503;-42
2024/03/08 12:13:50;;;;;;;;;;;6.70;88.00;;;;;;4995378;28;87670;-43
2024/03/08 12:16:17;;;;;;;;;;;6.70;87.90;;;;;;4992545;28;88021;-42
2024/03/08 12:18:44;;;;;;;;;;;6.70;87.90;;;;;;5004379;28;88912;-43
2024/03/08 12:21:10;;;;;;;;;;;6.70;87.70;;;;;;5011335;28;87151;-43
2024/03/08 12:23:36;;;;;;;;;;;6.70;88.00;;;;;;5003285;28;86913;-42
2024/03/08 12:26:13;;;;;;;;;;;6.70;87.90;;;;;;4994260;28;86770;-42
2024/03/08 12:28:40;;;;;;;;;;;6.70;87.80;;;;;;4995041;28;87316;-43
2024/03/08 12:31:10;;;;;;;;;;;6.70;87.90;;;;;;4996867;28;87627;-42
2024/03/08 12:33:52;;;;;;;;;;;6.70;88.00;;;;;;5003322;28;88035;-42
2024/03/08 12:36:19;;;;;;;;;;;6.70;87.90;;;;;;5000820;28;88422;-42
2024/03/08 12:38:48;;;;;;;;;;;6.70;87.70;;;;;;5010585;28;88633;-42
2024/03/08 12:41:15;;;;;;;;;;;6.80;87.70;;;;;;4993682;28;87354;-43
2024/03/08 12:43:40;;;;;;;;;;;6.80;87.70;;;;;;4992640;28;87673;-43
2024/03/08 12:46:06;;;;;;;;;;;6.80;87.80;;;;;;5000155;28;87405;-43
2024/03/08 12:48:35;;;;;;;;;;;6.80;87.70;;;;;;5010423;28;87036;-42
2024/03/08 12:51:01;;;;;;;;;;;6.80;87.70;;;;;;5006276;28;88041;-42
2024/03/08 12:53:28;;;;;;;;;;;6.80;87.60;;;;;;5008135;28;86972;-42
2024/03/08 12:55:56;;;;;;;;;;;6.80;87.60;;;;;;5000473;28;87836;-42
2024/03/08 12:58:22;;;;;;;;;;;6.80;87.60;;;;;;4989602;28;89656;-43
2024/03/08 13:00:49;;;;;;;;;;;6.80;87.70;;;;;;4995664;28;87086;-42
2024/03/08 13:03:14;;;;;;;;;;;6.80;87.60;;;;;;5002654;28;88046;-42
2024/03/08 13:05:42;;;;;;;;;;;6.80;87.70;;;;;;5000292;28;87839;-42
2024/03/08 13:08:12;;;;;;;;;;;6.80;87.60;;;;;;5011319;28;87091;-42
2024/03/08 13:10:38;;;;;;;;;;;6.80;87.60;;;;;;4990070;28;88042;-44
2024/03/08 13:13:04;;;;;;;;;;;6.90;87.60;;;;;;5002298;28;87950;-42
2024/03/08 13:15:30;;;;;;;;;;;6.80;87.40;;;;;;4998557;28;86913;-42
2024/03/08 13:17:59;;;;;;;;;;;6.90;87.50;;;;;;5003554;28;87468;-42
2024/03/08 13:20:28;;;;;;;;;;;6.90;87.50;;;;;;5001081;28;87829;-42
2024/03/08 13:22:53;;;;;;;;;;;6.90;87.50;;;;;;4997165;28;88026;-42
2024/03/08 13:25:20;;;;;;;;;;;6.90;87.50;;;;;;5004679;28;87738;-43
2024/03/08 13:27:45;;;;;;;;;;;6.90;87.60;;;;;;4998989;28;87327;-42
2024/03/08 13:30:18;;;;;;;;;;;6.90;87.40;;;;;;4999275;28;87806;-43
2024/03/08 13:32:43;;;;;;;;;;;6.90;87.40;;;;;;5004042;28;88354;-43
2024/03/08 13:35:12;;;;;;;;;;;6.90;87.40;;;;;;5011123;28;86951;-42
2024/03/08 13:37:39;;;;;;;;;;;6.90;87.40;;;;;;5013569;28;87396;-42
2024/03/08 13:40:05;;;;;;;;;;;6.90;87.20;;;;;;5006993;28;87209;-43
2024/03/08 13:42:31;;;;;;;;;;;7.00;87.20;;;;;;4998313;28;87427;-42
2024/03/08 13:44:56;;;;;;;;;;;7.00;87.20;;;;;;5002016;28;87657;-43
2024/03/08 13:47:24;;;;;;;;;;;7.00;87.30;;;;;;5005074;28;88390;-43
2024/03/08 13:49:50;;;;;;;;;;;7.00;87.30;;;;;;5003037;28;87008;-42
2024/03/08 13:52:16;;;;;;;;;;;7.00;87.30;;;;;;5006721;28;87684;-43
2024/03/08 13:54:42;;;;;;;;;;;7.00;87.20;;;;;;5011363;28;87203;-42
2024/03/08 13:57:07;;;;;;;;;;;7.00;87.10;;;;;;4998509;28;87325;-41
2024/03/08 13:59:35;;;;;;;;;;;6.90;87.70;;;;;;4995617;28;87663;-38
2024/03/08 14:02:03;;;;;;;;;;;6.90;85.90;;;;;;5005701;28;88074;-40
2024/03/08 14:04:29;;;;;;;;;;;6.90;83.90;;;;;;5010517;28;86857;-47
2024/03/08 14:06:56;;;;;;;;;;;7.00;84.40;;;;;;5013273;28;87874;-46
2024/03/08 14:09:24;;;;;;;;;;;7.00;82.90;;;;;;4986552;28;86948;-42
2024/03/08 14:11:53;;;;;;;;;;;7.00;84.10;;;;;;4988045;28;88424;-49
2024/03/08 14:14:20;;;;;;;;;;;7.00;84.50;;;;;;4990614;28;88736;-49
2024/03/08 14:16:47;;;;;;;;;;;7.00;84.80;;;;;;4997302;28;88226;-44
2024/03/08 14:19:15;;;;;;;;;;;7.10;83.50;;;;;;5001848;28;87163;-47
2024/03/08 14:21:41;;;;;;;;;;;7.10;84.00;;;;;;5007398;28;87739;-43
2024/03/08 14:24:07;;;;;;;;;;;7.10;81.30;;;;;;5000287;28;88706;-50
2024/03/08 14:26:34;;;;;;;;;;;7.10;82.40;;;;;;5002855;28;88042;-47
2024/03/08 14:28:59;;;;;;;;;;;7.20;81.80;;;;;;5009548;28;89626;-59
2024/03/08 14:31:25;;;;;;;;;;;7.20;79.20;;;;;;5015437;28;87306;-60
2024/03/08 14:33:52;;;;;;;;;;;7.30;80.00;;;;;;4994720;28;86998;-58